sensor_id;sensor_type;location;lat;lon;timestamp;temperature;humidity
52509;DHT22;38420;53.150;6.370;2023-01-19T00:01:38;3.10;99.90
52509;DHT22;38420;53.150;6.370;2023-01-19T00:04:04;2.30;99.90
52509;DHT22;38420;53.150;6.370;2023-01-19T00:06:30;2.40;99.90
52509;DHT22;38420;53.150;6.370;2023-01-19T00:08:56;2.60;99.90
52509;DHT22;38420;53.150;6.370;2023-01-19T00:11:22;2.30;99.90
52509;DHT22;38420;53.150;6.370;2023-01-19T00:13:48;2.40;99.90
52509;DHT22;38420;53.150;6.370;2023-01-19T00:16:18;3.30;99.90
52509;DHT22;38420;53.150;6.370;2023-01-19T00:18:46;2.40;99.90
52509;DHT22;38420;53.150;6.370;2023-01-19T00:21:12;2.90;99.90
52509;DHT22;38420;53.150;6.370;2023-01-19T00:23:41;3.10;99.90
52509;DHT22;38420;53.150;6.370;2023-01-19T00:26:08;2.50;99.90
52509;DHT22;38420;53.150;6.370;2023-01-19T00:28:34;2.90;99.90
52509;DHT22;38420;53.150;6.370;2023-01-19T00:31:00;2.40;99.90
52509;DHT22;38420;53.150;6.370;2023-01-19T00:33:26;2.40;99.90
52509;DHT22;38420;53.150;6.370;2023-01-19T00:35:52;2.80;99.90
52509;DHT22;38420;53.150;6.370;2023-01-19T00:38:19;2.30;99.90
52509;DHT22;38420;53.150;6.370;2023-01-19T00:40:46;2.30;99.90
52509;DHT22;38420;53.150;6.370;2023-01-19T00:43:11;3.00;99.90
52509;DHT22;38420;53.150;6.370;2023-01-19T00:45:37;2.30;99.90
52509;DHT22;38420;53.150;6.370;2023-01-19T00:48:03;3.20;99.90
52509;DHT22;38420;53.150;6.370;2023-01-19T00:50:29;2.50;99.90
52509;DHT22;38420;53.150;6.370;2023-01-19T00:52:56;2.90;99.90
52509;DHT22;38420;53.150;6.370;2023-01-19T00:55:25;2.70;99.90
52509;DHT22;38420;53.150;6.370;2023-01-19T00:57:53;3.10;99.90
52509;DHT22;38420;53.150;6.370;2023-01-19T01:00:19;2.70;99.90
52509;DHT22;38420;53.150;6.370;2023-01-19T01:02:47;2.20;99.90
52509;DHT22;38420;53.150;6.370;2023-01-19T01:05:13;2.50;99.90
52509;DHT22;38420;53.150;6.370;2023-01-19T01:07:39;3.30;99.90
52509;DHT22;38420;53.150;6.370;2023-01-19T01:10:10;3.30;99.90
52509;DHT22;38420;53.150;6.370;2023-01-19T01:12:37;2.50;99.90
52509;DHT22;38420;53.150;6.370;2023-01-19T01:15:05;2.60;99.90
52509;DHT22;38420;53.150;6.370;2023-01-19T01:17:31;3.40;99.90
52509;DHT22;38420;53.150;6.370;2023-01-19T01:19:56;2.60;99.90
52509;DHT22;38420;53.150;6.370;2023-01-19T01:22:22;3.30;99.90
52509;DHT22;38420;53.150;6.370;2023-01-19T01:24:47;3.00;99.90
52509;DHT22;38420;53.150;6.370;2023-01-19T01:27:13;2.90;99.90
52509;DHT22;38420;53.150;6.370;2023-01-19T01:29:39;2.50;99.90
52509;DHT22;38420;53.150;6.370;2023-01-19T01:32:06;2.80;99.90
52509;DHT22;38420;53.150;6.370;2023-01-19T01:34:32;2.60;99.90
52509;DHT22;38420;53.150;6.370;2023-01-19T01:36:58;3.50;99.90
52509;DHT22;38420;53.150;6.370;2023-01-19T01:39:23;3.00;99.90
52509;DHT22;38420;53.150;6.370;2023-01-19T01:41:50;2.60;99.90
52509;DHT22;38420;53.150;6.370;2023-01-19T01:44:46;2.70;99.90
52509;DHT22;38420;53.150;6.370;2023-01-19T01:49:52;3.60;99.90
52509;DHT22;38420;53.150;6.370;2023-01-19T01:52:19;3.40;99.90
52509;DHT22;38420;53.150;6.370;2023-01-19T01:54:46;2.90;99.90
52509;DHT22;38420;53.150;6.370;2023-01-19T01:57:13;3.70;99.90
52509;DHT22;38420;53.150;6.370;2023-01-19T01:59:44;2.80;99.90
52509;DHT22;38420;53.150;6.370;2023-01-19T02:02:18;2.70;99.90
52509;DHT22;38420;53.150;6.370;2023-01-19T02:05:10;3.80;99.90
52509;DHT22;38420;53.150;6.370;2023-01-19T02:10:48;3.20;99.90
52509;DHT22;38420;53.150;6.370;2023-01-19T02:13:35;3.50;99.90
52509;DHT22;38420;53.150;6.370;2023-01-19T02:16:04;3.70;99.90
52509;DHT22;38420;53.150;6.370;2023-01-19T02:18:31;3.40;99.90
52509;DHT22;38420;53.150;6.370;2023-01-19T02:23:48;2.40;99.90
52509;DHT22;38420;53.150;6.370;2023-01-19T02:26:23;3.40;99.90
52509;DHT22;38420;53.150;6.370;2023-01-19T02:28:58;2.60;99.90
52509;DHT22;38420;53.150;6.370;2023-01-19T02:31:25;2.50;99.90
52509;DHT22;38420;53.150;6.370;2023-01-19T02:33:51;2.90;99.90
52509;DHT22;38420;53.150;6.370;2023-01-19T02:36:21;2.70;99.90
52509;DHT22;38420;53.150;6.370;2023-01-19T02:38:50;2.60;99.90
52509;DHT22;38420;53.150;6.370;2023-01-19T02:41:18;3.50;99.90
52509;DHT22;38420;53.150;6.370;2023-01-19T02:43:47;3.20;99.90
52509;DHT22;38420;53.150;6.370;2023-01-19T02:46:13;2.50;99.90
52509;DHT22;38420;53.150;6.370;2023-01-19T02:48:40;3.30;99.90
52509;DHT22;38420;53.150;6.370;2023-01-19T02:51:24;3.00;99.90
52509;DHT22;38420;53.150;6.370;2023-01-19T02:56:49;2.40;99.90
52509;DHT22;38420;53.150;6.370;2023-01-19T03:05:31;2.30;99.90
52509;DHT22;38420;53.150;6.370;2023-01-19T03:08:20;2.40;99.90
52509;DHT22;38420;53.150;6.370;2023-01-19T03:11:05;3.30;99.90
52509;DHT22;38420;53.150;6.370;2023-01-19T03:13:56;3.40;99.90
52509;DHT22;38420;53.150;6.370;2023-01-19T03:16:40;2.50;99.90
52509;DHT22;38420;53.150;6.370;2023-01-19T03:19:12;3.20;99.90
52509;DHT22;38420;53.150;6.370;2023-01-19T03:21:41;2.50;99.90
52509;DHT22;38420;53.150;6.370;2023-01-19T03:24:10;2.60;99.90
52509;DHT22;38420;53.150;6.370;2023-01-19T03:26:43;2.20;99.90
52509;DHT22;38420;53.150;6.370;2023-01-19T03:29:12;2.50;99.90
52509;DHT22;38420;53.150;6.370;2023-01-19T03:31:41;3.30;99.90
52509;DHT22;38420;53.150;6.370;2023-01-19T03:34:09;3.30;99.90
52509;DHT22;38420;53.150;6.370;2023-01-19T03:36:45;3.10;99.90
52509;DHT22;38420;53.150;6.370;2023-01-19T03:39:18;2.80;99.90
52509;DHT22;38420;53.150;6.370;2023-01-19T03:41:47;2.60;99.90
52509;DHT22;38420;53.150;6.370;2023-01-19T03:44:15;3.00;99.90
52509;DHT22;38420;53.150;6.370;2023-01-19T03:46:40;3.00;99.90
52509;DHT22;38420;53.150;6.370;2023-01-19T03:49:07;2.60;99.90
52509;DHT22;38420;53.150;6.370;2023-01-19T03:51:37;3.20;99.90
52509;DHT22;38420;53.150;6.370;2023-01-19T03:54:04;2.10;99.90
52509;DHT22;38420;53.150;6.370;2023-01-19T03:56:30;2.40;99.90
52509;DHT22;38420;53.150;6.370;2023-01-19T03:58:55;2.30;99.90
52509;DHT22;38420;53.150;6.370;2023-01-19T04:01:22;2.90;99.90
52509;DHT22;38420;53.150;6.370;2023-01-19T04:03:48;2.20;99.90
52509;DHT22;38420;53.150;6.370;2023-01-19T04:06:15;3.30;99.90
52509;DHT22;38420;53.150;6.370;2023-01-19T04:08:40;2.40;99.90
52509;DHT22;38420;53.150;6.370;2023-01-19T04:11:06;2.30;99.90
52509;DHT22;38420;53.150;6.370;2023-01-19T04:13:33;2.40;99.90
52509;DHT22;38420;53.150;6.370;2023-01-19T04:16:03;2.50;99.90
52509;DHT22;38420;53.150;6.370;2023-01-19T04:18:30;3.40;99.90
52509;DHT22;38420;53.150;6.370;2023-01-19T04:21:00;2.90;99.90
52509;DHT22;38420;53.150;6.370;2023-01-19T04:23:26;2.60;99.90
52509;DHT22;38420;53.150;6.370;2023-01-19T04:25:59;3.50;99.90
52509;DHT22;38420;53.150;6.370;2023-01-19T04:28:26;3.60;99.90
52509;DHT22;38420;53.150;6.370;2023-01-19T04:30:52;2.40;99.90
52509;DHT22;38420;53.150;6.370;2023-01-19T04:33:18;2.80;99.90
52509;DHT22;38420;53.150;6.370;2023-01-19T04:35:45;2.80;99.90
52509;DHT22;38420;53.150;6.370;2023-01-19T04:38:10;2.50;99.90
52509;DHT22;38420;53.150;6.370;2023-01-19T04:40:36;3.50;99.90
52509;DHT22;38420;53.150;6.370;2023-01-19T04:43:02;3.20;99.90
52509;DHT22;38420;53.150;6.370;2023-01-19T04:45:27;3.50;99.90
52509;DHT22;38420;53.150;6.370;2023-01-19T04:47:53;3.40;99.90
52509;DHT22;38420;53.150;6.370;2023-01-19T04:50:19;2.80;99.90
52509;DHT22;38420;53.150;6.370;2023-01-19T04:52:44;2.50;99.90
52509;DHT22;38420;53.150;6.370;2023-01-19T04:55:10;2.80;99.90
52509;DHT22;38420;53.150;6.370;2023-01-19T04:57:36;2.50;99.90
52509;DHT22;38420;53.150;6.370;2023-01-19T05:00:03;3.60;99.90
52509;DHT22;38420;53.150;6.370;2023-01-19T05:02:29;3.60;99.90
52509;DHT22;38420;53.150;6.370;2023-01-19T05:04:55;3.20;99.90
52509;DHT22;38420;53.150;6.370;2023-01-19T05:07:21;3.70;99.90
52509;DHT22;38420;53.150;6.370;2023-01-19T05:09:46;2.50;99.90
52509;DHT22;38420;53.150;6.370;2023-01-19T05:12:12;2.60;99.90
52509;DHT22;38420;53.150;6.370;2023-01-19T05:14:37;2.90;99.90
52509;DHT22;38420;53.150;6.370;2023-01-19T05:17:03;3.40;99.90
52509;DHT22;38420;53.150;6.370;2023-01-19T05:19:28;3.10;99.90
52509;DHT22;38420;53.150;6.370;2023-01-19T05:21:54;3.20;99.90
52509;DHT22;38420;53.150;6.370;2023-01-19T05:24:20;2.70;99.90
52509;DHT22;38420;53.150;6.370;2023-01-19T05:26:46;2.50;99.90
52509;DHT22;38420;53.150;6.370;2023-01-19T05:29:11;3.00;99.90
52509;DHT22;38420;53.150;6.370;2023-01-19T05:31:37;3.10;99.90
52509;DHT22;38420;53.150;6.370;2023-01-19T05:34:03;2.50;99.90
52509;DHT22;38420;53.150;6.370;2023-01-19T05:36:29;3.10;99.90
52509;DHT22;38420;53.150;6.370;2023-01-19T05:38:54;2.40;99.90
52509;DHT22;38420;53.150;6.370;2023-01-19T05:41:20;3.50;99.90
52509;DHT22;38420;53.150;6.370;2023-01-19T05:43:45;3.50;99.90
52509;DHT22;38420;53.150;6.370;2023-01-19T05:46:11;2.50;99.90
52509;DHT22;38420;53.150;6.370;2023-01-19T05:48:37;3.50;99.90
52509;DHT22;38420;53.150;6.370;2023-01-19T05:51:03;2.80;99.90
52509;DHT22;38420;53.150;6.370;2023-01-19T05:53:29;3.50;99.90
52509;DHT22;38420;53.150;6.370;2023-01-19T05:56:00;3.40;99.90
52509;DHT22;38420;53.150;6.370;2023-01-19T05:58:26;3.40;99.90
52509;DHT22;38420;53.150;6.370;2023-01-19T06:00:51;3.30;99.90
52509;DHT22;38420;53.150;6.370;2023-01-19T06:03:17;2.80;99.90
52509;DHT22;38420;53.150;6.370;2023-01-19T06:05:43;3.50;99.90
52509;DHT22;38420;53.150;6.370;2023-01-19T06:08:09;2.90;99.90
52509;DHT22;38420;53.150;6.370;2023-01-19T06:10:34;2.70;99.90
52509;DHT22;38420;53.150;6.370;2023-01-19T06:13:00;3.50;99.90
52509;DHT22;38420;53.150;6.370;2023-01-19T06:15:26;3.20;99.90
52509;DHT22;38420;53.150;6.370;2023-01-19T06:17:51;2.90;99.90
52509;DHT22;38420;53.150;6.370;2023-01-19T06:20:17;2.50;99.90
52509;DHT22;38420;53.150;6.370;2023-01-19T06:22:42;2.40;99.90
52509;DHT22;38420;53.150;6.370;2023-01-19T06:25:08;2.80;99.90
52509;DHT22;38420;53.150;6.370;2023-01-19T06:27:34;3.10;99.90
52509;DHT22;38420;53.150;6.370;2023-01-19T06:30:01;3.20;99.90
52509;DHT22;38420;53.150;6.370;2023-01-19T06:32:26;3.20;99.90
52509;DHT22;38420;53.150;6.370;2023-01-19T06:34:52;3.40;99.90
52509;DHT22;38420;53.150;6.370;2023-01-19T06:37:18;3.50;99.90
52509;DHT22;38420;53.150;6.370;2023-01-19T06:39:43;2.70;99.90
52509;DHT22;38420;53.150;6.370;2023-01-19T06:42:09;2.90;99.90
52509;DHT22;38420;53.150;6.370;2023-01-19T06:44:35;3.50;99.90
52509;DHT22;38420;53.150;6.370;2023-01-19T06:47:01;3.20;99.90
52509;DHT22;38420;53.150;6.370;2023-01-19T06:49:26;3.30;99.90
52509;DHT22;38420;53.150;6.370;2023-01-19T06:51:52;2.50;99.90
52509;DHT22;38420;53.150;6.370;2023-01-19T06:54:17;2.50;99.90
52509;DHT22;38420;53.150;6.370;2023-01-19T06:56:43;2.80;99.90
52509;DHT22;38420;53.150;6.370;2023-01-19T06:59:09;2.70;99.90
52509;DHT22;38420;53.150;6.370;2023-01-19T07:01:34;3.50;99.90
52509;DHT22;38420;53.150;6.370;2023-01-19T07:04:00;3.60;99.90
52509;DHT22;38420;53.150;6.370;2023-01-19T07:06:26;3.70;99.90
52509;DHT22;38420;53.150;6.370;2023-01-19T07:08:52;2.80;99.90
52509;DHT22;38420;53.150;6.370;2023-01-19T07:11:18;3.60;99.90
52509;DHT22;38420;53.150;6.370;2023-01-19T07:13:43;3.70;99.90
52509;DHT22;38420;53.150;6.370;2023-01-19T07:16:16;3.00;99.90
52509;DHT22;38420;53.150;6.370;2023-01-19T07:18:41;3.70;99.90
52509;DHT22;38420;53.150;6.370;2023-01-19T07:21:08;3.70;99.90
52509;DHT22;38420;53.150;6.370;2023-01-19T07:23:34;3.60;99.90
52509;DHT22;38420;53.150;6.370;2023-01-19T07:26:00;3.40;99.90
52509;DHT22;38420;53.150;6.370;2023-01-19T07:28:27;3.90;99.90
52509;DHT22;38420;53.150;6.370;2023-01-19T07:30:53;3.40;99.90
52509;DHT22;38420;53.150;6.370;2023-01-19T07:33:20;3.90;99.90
52509;DHT22;38420;53.150;6.370;2023-01-19T07:35:50;3.30;99.90
52509;DHT22;38420;53.150;6.370;2023-01-19T07:38:17;4.00;99.90
52509;DHT22;38420;53.150;6.370;2023-01-19T07:40:43;3.60;99.90
52509;DHT22;38420;53.150;6.370;2023-01-19T07:43:11;3.40;99.90
52509;DHT22;38420;53.150;6.370;2023-01-19T07:45:37;3.70;99.90
52509;DHT22;38420;53.150;6.370;2023-01-19T07:48:03;3.50;99.90
52509;DHT22;38420;53.150;6.370;2023-01-19T07:50:29;3.50;99.90
52509;DHT22;38420;53.150;6.370;2023-01-19T07:52:55;3.50;99.90
52509;DHT22;38420;53.150;6.370;2023-01-19T07:55:22;3.50;99.90
52509;DHT22;38420;53.150;6.370;2023-01-19T07:57:49;3.50;99.90
52509;DHT22;38420;53.150;6.370;2023-01-19T08:00:19;3.90;99.90
52509;DHT22;38420;53.150;6.370;2023-01-19T08:02:50;3.80;99.90
52509;DHT22;38420;53.150;6.370;2023-01-19T08:05:19;3.50;99.90
52509;DHT22;38420;53.150;6.370;2023-01-19T08:07:45;3.90;99.90
52509;DHT22;38420;53.150;6.370;2023-01-19T08:10:12;3.60;99.90
52509;DHT22;38420;53.150;6.370;2023-01-19T08:12:38;3.60;99.90
52509;DHT22;38420;53.150;6.370;2023-01-19T08:15:05;3.70;99.90
52509;DHT22;38420;53.150;6.370;2023-01-19T08:17:30;3.70;99.90
52509;DHT22;38420;53.150;6.370;2023-01-19T08:19:56;3.50;99.90
52509;DHT22;38420;53.150;6.370;2023-01-19T08:22:21;3.90;99.90
52509;DHT22;38420;53.150;6.370;2023-01-19T08:24:47;3.50;99.90
52509;DHT22;38420;53.150;6.370;2023-01-19T08:27:13;3.90;99.90
52509;DHT22;38420;53.150;6.370;2023-01-19T08:29:38;3.80;99.90
52509;DHT22;38420;53.150;6.370;2023-01-19T08:32:04;3.70;99.90
52509;DHT22;38420;53.150;6.370;2023-01-19T08:34:31;3.90;99.90
52509;DHT22;38420;53.150;6.370;2023-01-19T08:36:57;3.90;99.90
52509;DHT22;38420;53.150;6.370;2023-01-19T08:39:23;3.80;99.90
52509;DHT22;38420;53.150;6.370;2023-01-19T08:41:49;3.60;99.90
52509;DHT22;38420;53.150;6.370;2023-01-19T08:44:15;3.70;99.90
52509;DHT22;38420;53.150;6.370;2023-01-19T08:46:41;3.60;99.90
52509;DHT22;38420;53.150;6.370;2023-01-19T08:49:06;4.10;99.90
52509;DHT22;38420;53.150;6.370;2023-01-19T08:51:33;4.10;99.90
52509;DHT22;38420;53.150;6.370;2023-01-19T08:53:58;3.70;99.90
52509;DHT22;38420;53.150;6.370;2023-01-19T08:56:24;3.70;99.90
52509;DHT22;38420;53.150;6.370;2023-01-19T08:58:50;3.80;99.90
52509;DHT22;38420;53.150;6.370;2023-01-19T09:01:15;3.90;99.90
52509;DHT22;38420;53.150;6.370;2023-01-19T09:03:41;3.80;99.90
52509;DHT22;38420;53.150;6.370;2023-01-19T09:06:09;3.80;99.90
52509;DHT22;38420;53.150;6.370;2023-01-19T09:08:36;3.70;99.90
52509;DHT22;38420;53.150;6.370;2023-01-19T09:11:02;3.90;99.90
52509;DHT22;38420;53.150;6.370;2023-01-19T09:13:29;3.90;99.90
52509;DHT22;38420;53.150;6.370;2023-01-19T09:15:55;3.60;99.90
52509;DHT22;38420;53.150;6.370;2023-01-19T09:18:21;3.70;99.90
52509;DHT22;38420;53.150;6.370;2023-01-19T09:20:49;3.80;99.90
52509;DHT22;38420;53.150;6.370;2023-01-19T09:23:17;3.70;99.90
52509;DHT22;38420;53.150;6.370;2023-01-19T09:25:44;3.60;99.90
52509;DHT22;38420;53.150;6.370;2023-01-19T09:28:12;3.80;99.90
52509;DHT22;38420;53.150;6.370;2023-01-19T09:30:40;5.20;99.90
52509;DHT22;38420;53.150;6.370;2023-01-19T09:33:08;3.80;99.90
52509;DHT22;38420;53.150;6.370;2023-01-19T09:35:39;4.00;99.90
52509;DHT22;38420;53.150;6.370;2023-01-19T09:38:05;4.20;99.90
52509;DHT22;38420;53.150;6.370;2023-01-19T09:40:52;4.30;99.90
52509;DHT22;38420;53.150;6.370;2023-01-19T09:43:50;4.60;99.90
52509;DHT22;38420;53.150;6.370;2023-01-19T09:48:58;4.60;99.90
52509;DHT22;38420;53.150;6.370;2023-01-19T09:51:33;4.80;99.90
52509;DHT22;38420;53.150;6.370;2023-01-19T09:54:11;5.20;99.90
52509;DHT22;38420;53.150;6.370;2023-01-19T09:56:39;5.10;99.90
52509;DHT22;38420;53.150;6.370;2023-01-19T09:59:25;5.00;99.90
52509;DHT22;38420;53.150;6.370;2023-01-19T10:07:08;5.00;99.90
52509;DHT22;38420;53.150;6.370;2023-01-19T10:09:39;5.20;99.90
52509;DHT22;38420;53.150;6.370;2023-01-19T10:12:30;5.10;99.90
52509;DHT22;38420;53.150;6.370;2023-01-19T10:15:11;5.10;99.90
52509;DHT22;38420;53.150;6.370;2023-01-19T10:17:59;5.00;99.90
52509;DHT22;38420;53.150;6.370;2023-01-19T10:20:34;5.20;99.90
52509;DHT22;38420;53.150;6.370;2023-01-19T10:23:04;5.20;99.90
52509;DHT22;38420;53.150;6.370;2023-01-19T10:25:36;5.50;99.90
52509;DHT22;38420;53.150;6.370;2023-01-19T10:28:03;6.20;99.90
52509;DHT22;38420;53.150;6.370;2023-01-19T10:30:29;6.90;99.90
52509;DHT22;38420;53.150;6.370;2023-01-19T10:32:54;7.50;99.90
52509;DHT22;38420;53.150;6.370;2023-01-19T10:35:22;6.90;99.90
52509;DHT22;38420;53.150;6.370;2023-01-19T10:37:54;6.40;99.90
52509;DHT22;38420;53.150;6.370;2023-01-19T10:40:38;5.90;99.90
52509;DHT22;38420;53.150;6.370;2023-01-19T10:43:36;6.10;99.90
52509;DHT22;38420;53.150;6.370;2023-01-19T10:46:05;6.90;99.90
52509;DHT22;38420;53.150;6.370;2023-01-19T10:48:39;7.50;99.90
52509;DHT22;38420;53.150;6.370;2023-01-19T10:51:08;7.90;99.90
52509;DHT22;38420;53.150;6.370;2023-01-19T10:53:34;8.20;99.90
52509;DHT22;38420;53.150;6.370;2023-01-19T10:56:26;8.10;99.90
52509;DHT22;38420;53.150;6.370;2023-01-19T10:58:52;8.20;99.90
52509;DHT22;38420;53.150;6.370;2023-01-19T11:01:24;8.40;99.90
52509;DHT22;38420;53.150;6.370;2023-01-19T11:03:50;8.40;99.90
52509;DHT22;38420;53.150;6.370;2023-01-19T11:06:20;8.80;99.90
52509;DHT22;38420;53.150;6.370;2023-01-19T11:08:47;8.70;99.90
52509;DHT22;38420;53.150;6.370;2023-01-19T11:11:17;8.50;99.90
52509;DHT22;38420;53.150;6.370;2023-01-19T11:13:43;8.20;99.90
52509;DHT22;38420;53.150;6.370;2023-01-19T11:16:27;8.00;99.90
52509;DHT22;38420;53.150;6.370;2023-01-19T11:18:55;7.80;99.90
52509;DHT22;38420;53.150;6.370;2023-01-19T11:21:25;7.60;99.90
52509;DHT22;38420;53.150;6.370;2023-01-19T11:23:54;7.50;99.90
52509;DHT22;38420;53.150;6.370;2023-01-19T11:28:50;7.00;99.90
52509;DHT22;38420;53.150;6.370;2023-01-19T11:31:26;6.90;99.90
52509;DHT22;38420;53.150;6.370;2023-01-19T11:37:00;7.30;99.90
52509;DHT22;38420;53.150;6.370;2023-01-19T11:39:29;7.40;99.90
52509;DHT22;38420;53.150;6.370;2023-01-19T11:41:58;7.20;99.90
52509;DHT22;38420;53.150;6.370;2023-01-19T11:44:35;6.90;99.90
52509;DHT22;38420;53.150;6.370;2023-01-19T11:47:24;6.70;99.90
52509;DHT22;38420;53.150;6.370;2023-01-19T11:50:14;6.60;99.90
52509;DHT22;38420;53.150;6.370;2023-01-19T11:52:56;6.60;99.90
52509;DHT22;38420;53.150;6.370;2023-01-19T11:58:23;6.40;99.90
52509;DHT22;38420;53.150;6.370;2023-01-19T12:00:54;6.40;99.90
52509;DHT22;38420;53.150;6.370;2023-01-19T12:06:07;6.40;99.90
52509;DHT22;38420;53.150;6.370;2023-01-19T12:08:36;6.50;99.90
52509;DHT22;38420;53.150;6.370;2023-01-19T12:11:05;6.50;99.90
52509;DHT22;38420;53.150;6.370;2023-01-19T12:13:33;6.20;99.90
52509;DHT22;38420;53.150;6.370;2023-01-19T12:16:09;6.50;99.90
52509;DHT22;38420;53.150;6.370;2023-01-19T12:18:39;6.40;99.90
52509;DHT22;38420;53.150;6.370;2023-01-19T12:21:06;6.20;99.90
52509;DHT22;38420;53.150;6.370;2023-01-19T12:26:31;6.00;99.90
52509;DHT22;38420;53.150;6.370;2023-01-19T12:29:06;6.00;99.90
52509;DHT22;38420;53.150;6.370;2023-01-19T12:31:35;6.10;99.90
52509;DHT22;38420;53.150;6.370;2023-01-19T12:36:50;6.30;99.90
52509;DHT22;38420;53.150;6.370;2023-01-19T12:39:19;6.30;99.90
52509;DHT22;38420;53.150;6.370;2023-01-19T12:41:45;6.30;99.90
52509;DHT22;38420;53.150;6.370;2023-01-19T12:47:23;6.10;99.90
52509;DHT22;38420;53.150;6.370;2023-01-19T12:54:48;5.70;99.90
52509;DHT22;38420;53.150;6.370;2023-01-19T12:57:20;5.60;99.90
52509;DHT22;38420;53.150;6.370;2023-01-19T12:59:58;5.70;99.90
52509;DHT22;38420;53.150;6.370;2023-01-19T13:13:22;5.90;99.90
52509;DHT22;38420;53.150;6.370;2023-01-19T13:15:48;5.80;99.90
52509;DHT22;38420;53.150;6.370;2023-01-19T13:18:19;5.70;99.90
52509;DHT22;38420;53.150;6.370;2023-01-19T13:20:50;5.60;99.90
52509;DHT22;38420;53.150;6.370;2023-01-19T13:23:22;5.70;99.90
52509;DHT22;38420;53.150;6.370;2023-01-19T13:26:09;5.70;99.90
52509;DHT22;38420;53.150;6.370;2023-01-19T13:28:41;5.60;99.90
52509;DHT22;38420;53.150;6.370;2023-01-19T13:31:07;5.60;99.90
52509;DHT22;38420;53.150;6.370;2023-01-19T13:33:53;5.60;99.90
52509;DHT22;38420;53.150;6.370;2023-01-19T13:38:56;5.40;99.90
52509;DHT22;38420;53.150;6.370;2023-01-19T13:41:26;5.30;99.90
52509;DHT22;38420;53.150;6.370;2023-01-19T13:43:59;5.10;99.90
52509;DHT22;38420;53.150;6.370;2023-01-19T13:46:26;5.10;99.90
52509;DHT22;38420;53.150;6.370;2023-01-19T13:48:59;5.00;99.90
52509;DHT22;38420;53.150;6.370;2023-01-19T13:51:26;5.00;99.90
52509;DHT22;38420;53.150;6.370;2023-01-19T13:53:58;4.90;99.90
52509;DHT22;38420;53.150;6.370;2023-01-19T13:56:27;4.90;99.90
52509;DHT22;38420;53.150;6.370;2023-01-19T13:59:12;4.80;99.90
52509;DHT22;38420;53.150;6.370;2023-01-19T14:01:43;4.80;99.90
52509;DHT22;38420;53.150;6.370;2023-01-19T14:04:30;4.70;99.90
52509;DHT22;38420;53.150;6.370;2023-01-19T14:07:05;4.60;99.90
52509;DHT22;38420;53.150;6.370;2023-01-19T14:09:36;4.60;99.90
52509;DHT22;38420;53.150;6.370;2023-01-19T14:12:15;4.50;99.90
52509;DHT22;38420;53.150;6.370;2023-01-19T14:14:43;4.50;99.90
52509;DHT22;38420;53.150;6.370;2023-01-19T14:17:22;4.70;99.90
52509;DHT22;38420;53.150;6.370;2023-01-19T14:19:53;5.10;99.90
52509;DHT22;38420;53.150;6.370;2023-01-19T14:22:20;5.10;99.90
52509;DHT22;38420;53.150;6.370;2023-01-19T14:24:45;5.00;99.90
52509;DHT22;38420;53.150;6.370;2023-01-19T14:27:22;4.80;99.90
52509;DHT22;38420;53.150;6.370;2023-01-19T14:29:50;4.60;99.90
52509;DHT22;38420;53.150;6.370;2023-01-19T14:32:18;4.50;99.90
52509;DHT22;38420;53.150;6.370;2023-01-19T14:34:47;4.40;99.90
52509;DHT22;38420;53.150;6.370;2023-01-19T14:37:21;4.30;99.90
52509;DHT22;38420;53.150;6.370;2023-01-19T14:42:33;4.10;99.90
52509;DHT22;38420;53.150;6.370;2023-01-19T14:45:02;4.10;99.90
52509;DHT22;38420;53.150;6.370;2023-01-19T14:47:34;4.00;99.90
52509;DHT22;38420;53.150;6.370;2023-01-19T14:52:42;3.90;99.90
52509;DHT22;38420;53.150;6.370;2023-01-19T14:55:37;3.80;99.90
52509;DHT22;38420;53.150;6.370;2023-01-19T14:58:11;3.80;99.90
52509;DHT22;38420;53.150;6.370;2023-01-19T15:00:38;3.70;99.90
52509;DHT22;38420;53.150;6.370;2023-01-19T15:03:03;3.70;99.90
52509;DHT22;38420;53.150;6.370;2023-01-19T15:05:31;3.70;99.90
52509;DHT22;38420;53.150;6.370;2023-01-19T15:07:56;3.60;99.90
52509;DHT22;38420;53.150;6.370;2023-01-19T15:10:23;3.60;99.90
52509;DHT22;38420;53.150;6.370;2023-01-19T15:12:50;3.60;99.90
52509;DHT22;38420;53.150;6.370;2023-01-19T15:15:19;3.60;99.90
52509;DHT22;38420;53.150;6.370;2023-01-19T15:17:47;3.60;99.90
52509;DHT22;38420;53.150;6.370;2023-01-19T15:20:16;3.60;99.90
52509;DHT22;38420;53.150;6.370;2023-01-19T15:22:42;3.60;99.90
52509;DHT22;38420;53.150;6.370;2023-01-19T15:25:11;3.50;99.90
52509;DHT22;38420;53.150;6.370;2023-01-19T15:27:37;3.50;99.90
52509;DHT22;38420;53.150;6.370;2023-01-19T15:30:11;3.50;99.90
52509;DHT22;38420;53.150;6.370;2023-01-19T15:32:37;3.50;99.90
52509;DHT22;38420;53.150;6.370;2023-01-19T15:35:12;3.40;99.90
52509;DHT22;38420;53.150;6.370;2023-01-19T15:37:39;3.40;99.90
52509;DHT22;38420;53.150;6.370;2023-01-19T15:40:05;3.40;99.90
52509;DHT22;38420;53.150;6.370;2023-01-19T15:42:30;3.40;99.90
52509;DHT22;38420;53.150;6.370;2023-01-19T15:44:57;3.30;99.90
52509;DHT22;38420;53.150;6.370;2023-01-19T15:47:23;3.30;99.90
52509;DHT22;38420;53.150;6.370;2023-01-19T15:49:48;3.20;99.90
52509;DHT22;38420;53.150;6.370;2023-01-19T15:52:14;3.30;99.90
52509;DHT22;38420;53.150;6.370;2023-01-19T15:54:40;3.20;99.90
52509;DHT22;38420;53.150;6.370;2023-01-19T15:57:05;3.20;99.90
52509;DHT22;38420;53.150;6.370;2023-01-19T15:59:31;3.10;99.90
52509;DHT22;38420;53.150;6.370;2023-01-19T16:01:56;3.00;99.90
52509;DHT22;38420;53.150;6.370;2023-01-19T16:04:22;3.00;99.90
52509;DHT22;38420;53.150;6.370;2023-01-19T16:06:47;2.90;99.90
52509;DHT22;38420;53.150;6.370;2023-01-19T16:09:14;2.90;99.90
52509;DHT22;38420;53.150;6.370;2023-01-19T16:11:43;2.90;99.90
52509;DHT22;38420;53.150;6.370;2023-01-19T16:14:08;2.90;99.90
52509;DHT22;38420;53.150;6.370;2023-01-19T16:16:34;2.80;99.90
52509;DHT22;38420;53.150;6.370;2023-01-19T16:19:00;2.80;99.90
52509;DHT22;38420;53.150;6.370;2023-01-19T16:21:26;2.80;99.90
52509;DHT22;38420;53.150;6.370;2023-01-19T16:23:52;2.70;99.90
52509;DHT22;38420;53.150;6.370;2023-01-19T16:28:55;2.70;99.90
52509;DHT22;38420;53.150;6.370;2023-01-19T16:31:20;2.70;99.90
52509;DHT22;38420;53.150;6.370;2023-01-19T16:33:46;2.70;99.90
52509;DHT22;38420;53.150;6.370;2023-01-19T16:36:18;2.70;99.90
52509;DHT22;38420;53.150;6.370;2023-01-19T16:38:44;2.60;99.90
52509;DHT22;38420;53.150;6.370;2023-01-19T16:41:10;2.60;99.90
52509;DHT22;38420;53.150;6.370;2023-01-19T16:43:35;2.50;99.90
52509;DHT22;38420;53.150;6.370;2023-01-19T16:46:02;2.50;99.90
52509;DHT22;38420;53.150;6.370;2023-01-19T16:48:28;2.50;99.90
52509;DHT22;38420;53.150;6.370;2023-01-19T16:51:01;2.40;99.90
52509;DHT22;38420;53.150;6.370;2023-01-19T16:53:27;2.50;99.90
52509;DHT22;38420;53.150;6.370;2023-01-19T16:55:53;2.40;99.90
52509;DHT22;38420;53.150;6.370;2023-01-19T16:58:18;2.40;99.90
52509;DHT22;38420;53.150;6.370;2023-01-19T17:00:44;2.40;99.90
52509;DHT22;38420;53.150;6.370;2023-01-19T17:03:10;2.30;99.90
52509;DHT22;38420;53.150;6.370;2023-01-19T17:05:35;2.20;99.90
52509;DHT22;38420;53.150;6.370;2023-01-19T17:08:01;2.20;99.90